sensor_id;sensor_type;location;lat;lon;timestamp;P1;durP1;ratioP1;P2;durP2;ratioP2
43038;SDS011;62252;50.668;19.530;2022-11-20T00:01:04;650.75;;;505.13;;
43038;SDS011;62252;50.668;19.530;2022-11-20T00:06:16;639.95;;;524.92;;
43038;SDS011;62252;50.668;19.530;2022-11-20T00:08:50;576.13;;;467.15;;
43038;SDS011;62252;50.668;19.530;2022-11-20T00:11:28;485.80;;;420.15;;
43038;SDS011;62252;50.668;19.530;2022-11-20T00:14:02;392.25;;;350.92;;
43038;SDS011;62252;50.668;19.530;2022-11-20T00:16:41;402.35;;;360.00;;
43038;SDS011;62252;50.668;19.530;2022-11-20T00:19:14;418.02;;;374.42;;
43038;SDS011;62252;50.668;19.530;2022-11-20T00:21:51;407.00;;;362.83;;
43038;SDS011;62252;50.668;19.530;2022-11-20T00:24:25;397.48;;;353.50;;
43038;SDS011;62252;50.668;19.530;2022-11-20T00:26:58;369.95;;;322.48;;
43038;SDS011;62252;50.668;19.530;2022-11-20T00:29:32;370.42;;;321.05;;
43038;SDS011;62252;50.668;19.530;2022-11-20T00:32:05;402.42;;;358.92;;
43038;SDS011;62252;50.668;19.530;2022-11-20T00:34:41;398.33;;;355.23;;
43038;SDS011;62252;50.668;19.530;2022-11-20T00:37:17;410.40;;;365.65;;
43038;SDS011;62252;50.668;19.530;2022-11-20T00:39:51;405.17;;;361.27;;
43038;SDS011;62252;50.668;19.530;2022-11-20T00:42:24;393.00;;;339.63;;
43038;SDS011;62252;50.668;19.530;2022-11-20T00:44:58;396.50;;;342.23;;
43038;SDS011;62252;50.668;19.530;2022-11-20T00:47:32;378.38;;;331.88;;
43038;SDS011;62252;50.668;19.530;2022-11-20T00:50:05;415.88;;;370.70;;
43038;SDS011;62252;50.668;19.530;2022-11-20T00:52:42;402.20;;;358.77;;
43038;SDS011;62252;50.668;19.530;2022-11-20T00:55:15;408.13;;;364.50;;
43038;SDS011;62252;50.668;19.530;2022-11-20T00:57:51;394.33;;;351.67;;
43038;SDS011;62252;50.668;19.530;2022-11-20T01:00:24;385.33;;;342.77;;
43038;SDS011;62252;50.668;19.530;2022-11-20T01:02:57;389.50;;;344.27;;
43038;SDS011;62252;50.668;19.530;2022-11-20T01:05:33;374.58;;;332.98;;
43038;SDS011;62252;50.668;19.530;2022-11-20T01:08:09;384.10;;;338.13;;
43038;SDS011;62252;50.668;19.530;2022-11-20T01:10:43;499.05;;;391.30;;
43038;SDS011;62252;50.668;19.530;2022-11-20T01:13:16;416.48;;;333.02;;
43038;SDS011;62252;50.668;19.530;2022-11-20T01:16:05;477.55;;;386.13;;
43038;SDS011;62252;50.668;19.530;2022-11-20T01:18:41;525.22;;;407.85;;
43038;SDS011;62252;50.668;19.530;2022-11-20T01:21:16;638.55;;;464.95;;
43038;SDS011;62252;50.668;19.530;2022-11-20T01:23:56;667.53;;;490.98;;
43038;SDS011;62252;50.668;19.530;2022-11-20T01:26:31;473.02;;;389.27;;
43038;SDS011;62252;50.668;19.530;2022-11-20T01:29:06;426.40;;;356.98;;
43038;SDS011;62252;50.668;19.530;2022-11-20T01:31:43;708.83;;;522.05;;
43038;SDS011;62252;50.668;19.530;2022-11-20T01:34:19;383.80;;;342.10;;
43038;SDS011;62252;50.668;19.530;2022-11-20T01:36:53;397.85;;;356.63;;
43038;SDS011;62252;50.668;19.530;2022-11-20T01:39:29;550.03;;;434.08;;
43038;SDS011;62252;50.668;19.530;2022-11-20T01:42:03;738.38;;;529.75;;
43038;SDS011;62252;50.668;19.530;2022-11-20T01:44:53;754.08;;;535.28;;
43038;SDS011;62252;50.668;19.530;2022-11-20T01:47:30;746.05;;;528.78;;
43038;SDS011;62252;50.668;19.530;2022-11-20T01:50:09;754.83;;;526.97;;
43038;SDS011;62252;50.668;19.530;2022-11-20T01:52:50;763.53;;;536.55;;
43038;SDS011;62252;50.668;19.530;2022-11-20T01:55:31;761.67;;;538.13;;
43038;SDS011;62252;50.668;19.530;2022-11-20T01:58:07;755.75;;;537.05;;
43038;SDS011;62252;50.668;19.530;2022-11-20T02:00:41;761.28;;;540.90;;
43038;SDS011;62252;50.668;19.530;2022-11-20T02:03:15;736.67;;;530.22;;
43038;SDS011;62252;50.668;19.530;2022-11-20T02:05:51;717.78;;;520.75;;
43038;SDS011;62252;50.668;19.530;2022-11-20T02:08:30;425.05;;;350.60;;
43038;SDS011;62252;50.668;19.530;2022-11-20T02:11:06;401.67;;;358.40;;
43038;SDS011;62252;50.668;19.530;2022-11-20T02:13:41;425.40;;;352.17;;
43038;SDS011;62252;50.668;19.530;2022-11-20T02:16:13;394.27;;;350.92;;
43038;SDS011;62252;50.668;19.530;2022-11-20T02:18:51;414.67;;;369.23;;
43038;SDS011;62252;50.668;19.530;2022-11-20T02:21:32;394.35;;;350.70;;
43038;SDS011;62252;50.668;19.530;2022-11-20T02:24:12;412.83;;;368.23;;
43038;SDS011;62252;50.668;19.530;2022-11-20T02:26:48;373.35;;;332.40;;
43038;SDS011;62252;50.668;19.530;2022-11-20T02:29:25;396.58;;;353.80;;
43038;SDS011;62252;50.668;19.530;2022-11-20T02:32:02;366.38;;;327.33;;
43038;SDS011;62252;50.668;19.530;2022-11-20T02:34:36;386.63;;;345.00;;
43038;SDS011;62252;50.668;19.530;2022-11-20T02:37:09;374.10;;;332.73;;
43038;SDS011;62252;50.668;19.530;2022-11-20T02:39:45;368.05;;;327.13;;
43038;SDS011;62252;50.668;19.530;2022-11-20T02:42:21;384.67;;;336.00;;
43038;SDS011;62252;50.668;19.530;2022-11-20T02:44:54;367.83;;;323.75;;
43038;SDS011;62252;50.668;19.530;2022-11-20T02:47:28;362.45;;;306.08;;
43038;SDS011;62252;50.668;19.530;2022-11-20T02:50:01;368.95;;;317.30;;
43038;SDS011;62252;50.668;19.530;2022-11-20T02:52:35;386.77;;;327.73;;
43038;SDS011;62252;50.668;19.530;2022-11-20T02:55:11;385.42;;;330.40;;
43038;SDS011;62252;50.668;19.530;2022-11-20T02:57:44;422.25;;;377.48;;
43038;SDS011;62252;50.668;19.530;2022-11-20T03:00:18;366.83;;;321.70;;
43038;SDS011;62252;50.668;19.530;2022-11-20T03:02:52;383.20;;;342.27;;
43038;SDS011;62252;50.668;19.530;2022-11-20T03:05:25;386.33;;;345.00;;
43038;SDS011;62252;50.668;19.530;2022-11-20T03:07:58;400.98;;;357.67;;
43038;SDS011;62252;50.668;19.530;2022-11-20T03:10:34;378.73;;;333.77;;
43038;SDS011;62252;50.668;19.530;2022-11-20T03:13:08;369.17;;;328.38;;
43038;SDS011;62252;50.668;19.530;2022-11-20T03:15:41;364.70;;;319.13;;
43038;SDS011;62252;50.668;19.530;2022-11-20T03:18:14;378.52;;;327.52;;
43038;SDS011;62252;50.668;19.530;2022-11-20T03:20:48;600.28;;;466.63;;
43038;SDS011;62252;50.668;19.530;2022-11-20T03:23:21;595.05;;;461.00;;
43038;SDS011;62252;50.668;19.530;2022-11-20T03:26:06;678.50;;;493.40;;
43038;SDS011;62252;50.668;19.530;2022-11-20T03:28:40;696.45;;;499.70;;
43038;SDS011;62252;50.668;19.530;2022-11-20T03:31:14;667.85;;;491.13;;
43038;SDS011;62252;50.668;19.530;2022-11-20T03:33:48;719.92;;;511.60;;
43038;SDS011;62252;50.668;19.530;2022-11-20T03:36:22;708.58;;;505.35;;
43038;SDS011;62252;50.668;19.530;2022-11-20T03:38:55;737.58;;;530.63;;
43038;SDS011;62252;50.668;19.530;2022-11-20T03:41:35;525.47;;;424.30;;
43038;SDS011;62252;50.668;19.530;2022-11-20T03:44:15;381.52;;;336.42;;
43038;SDS011;62252;50.668;19.530;2022-11-20T03:46:48;371.05;;;330.10;;
43038;SDS011;62252;50.668;19.530;2022-11-20T03:49:22;415.60;;;371.25;;
43038;SDS011;62252;50.668;19.530;2022-11-20T03:51:55;715.38;;;535.47;;
43038;SDS011;62252;50.668;19.530;2022-11-20T03:54:28;659.08;;;521.38;;
43038;SDS011;62252;50.668;19.530;2022-11-20T03:57:05;667.25;;;521.83;;
43038;SDS011;62252;50.668;19.530;2022-11-20T03:59:38;672.42;;;513.67;;
43038;SDS011;62252;50.668;19.530;2022-11-20T04:02:11;676.15;;;523.47;;
43038;SDS011;62252;50.668;19.530;2022-11-20T04:04:45;676.22;;;532.30;;
43038;SDS011;62252;50.668;19.530;2022-11-20T04:07:18;666.35;;;536.70;;
43038;SDS011;62252;50.668;19.530;2022-11-20T04:09:51;700.28;;;519.10;;
43038;SDS011;62252;50.668;19.530;2022-11-20T04:12:27;710.92;;;518.85;;
43038;SDS011;62252;50.668;19.530;2022-11-20T04:15:04;707.75;;;510.52;;
43038;SDS011;62252;50.668;19.530;2022-11-20T04:17:38;686.83;;;503.40;;
43038;SDS011;62252;50.668;19.530;2022-11-20T04:20:14;574.28;;;457.58;;
43038;SDS011;62252;50.668;19.530;2022-11-20T04:22:48;470.08;;;400.40;;
43038;SDS011;62252;50.668;19.530;2022-11-20T04:25:21;384.25;;;342.75;;
43038;SDS011;62252;50.668;19.530;2022-11-20T04:27:57;372.85;;;332.10;;
43038;SDS011;62252;50.668;19.530;2022-11-20T04:30:31;362.77;;;320.08;;
43038;SDS011;62252;50.668;19.530;2022-11-20T04:33:04;372.42;;;331.55;;
43038;SDS011;62252;50.668;19.530;2022-11-20T04:35:37;366.73;;;316.58;;
43038;SDS011;62252;50.668;19.530;2022-11-20T04:38:11;353.30;;;312.50;;
43038;SDS011;62252;50.668;19.530;2022-11-20T04:40:45;350.23;;;311.40;;
43038;SDS011;62252;50.668;19.530;2022-11-20T04:43:21;391.77;;;350.45;;
43038;SDS011;62252;50.668;19.530;2022-11-20T04:45:55;391.45;;;350.02;;
43038;SDS011;62252;50.668;19.530;2022-11-20T04:48:29;438.30;;;391.75;;
43038;SDS011;62252;50.668;19.530;2022-11-20T04:51:06;428.80;;;382.27;;
43038;SDS011;62252;50.668;19.530;2022-11-20T04:53:40;412.92;;;359.60;;
43038;SDS011;62252;50.668;19.530;2022-11-20T04:56:13;436.23;;;389.40;;
43038;SDS011;62252;50.668;19.530;2022-11-20T04:58:49;426.70;;;380.77;;
43038;SDS011;62252;50.668;19.530;2022-11-20T05:01:23;432.63;;;385.33;;
43038;SDS011;62252;50.668;19.530;2022-11-20T05:03:58;421.83;;;376.20;;
43038;SDS011;62252;50.668;19.530;2022-11-20T05:06:31;426.15;;;379.63;;
43038;SDS011;62252;50.668;19.530;2022-11-20T05:09:06;420.52;;;374.85;;
43038;SDS011;62252;50.668;19.530;2022-11-20T05:11:39;414.08;;;368.20;;
43038;SDS011;62252;50.668;19.530;2022-11-20T05:14:15;427.13;;;380.40;;
43038;SDS011;62252;50.668;19.530;2022-11-20T05:16:48;417.45;;;371.67;;
43038;SDS011;62252;50.668;19.530;2022-11-20T05:19:22;588.08;;;476.92;;
43038;SDS011;62252;50.668;19.530;2022-11-20T05:21:55;425.70;;;355.55;;
43038;SDS011;62252;50.668;19.530;2022-11-20T05:24:28;571.25;;;456.20;;
43038;SDS011;62252;50.668;19.530;2022-11-20T05:27:03;658.03;;;521.63;;
43038;SDS011;62252;50.668;19.530;2022-11-20T05:29:38;633.78;;;498.83;;
43038;SDS011;62252;50.668;19.530;2022-11-20T05:32:12;648.80;;;492.38;;
43038;SDS011;62252;50.668;19.530;2022-11-20T05:34:46;460.95;;;408.20;;
43038;SDS011;62252;50.668;19.530;2022-11-20T05:37:20;431.10;;;385.35;;
43038;SDS011;62252;50.668;19.530;2022-11-20T05:39:55;609.65;;;492.65;;
43038;SDS011;62252;50.668;19.530;2022-11-20T05:42:30;398.45;;;351.42;;
43038;SDS011;62252;50.668;19.530;2022-11-20T05:45:07;466.23;;;417.08;;
43038;SDS011;62252;50.668;19.530;2022-11-20T05:47:42;436.05;;;389.83;;
43038;SDS011;62252;50.668;19.530;2022-11-20T05:50:19;637.72;;;503.55;;
43038;SDS011;62252;50.668;19.530;2022-11-20T05:52:53;685.55;;;546.53;;
43038;SDS011;62252;50.668;19.530;2022-11-20T05:55:27;682.33;;;538.88;;
43038;SDS011;62252;50.668;19.530;2022-11-20T05:58:02;737.00;;;555.83;;
43038;SDS011;62252;50.668;19.530;2022-11-20T06:00:39;728.63;;;542.50;;
43038;SDS011;62252;50.668;19.530;2022-11-20T06:03:13;739.13;;;553.45;;
43038;SDS011;62252;50.668;19.530;2022-11-20T06:05:50;715.95;;;529.65;;
43038;SDS011;62252;50.668;19.530;2022-11-20T06:08:26;698.00;;;521.10;;
43038;SDS011;62252;50.668;19.530;2022-11-20T06:11:03;665.17;;;494.38;;
43038;SDS011;62252;50.668;19.530;2022-11-20T06:13:38;558.45;;;468.42;;
43038;SDS011;62252;50.668;19.530;2022-11-20T06:16:16;557.97;;;476.52;;
43038;SDS011;62252;50.668;19.530;2022-11-20T06:18:50;531.63;;;449.20;;
43038;SDS011;62252;50.668;19.530;2022-11-20T06:21:24;539.88;;;473.58;;
43038;SDS011;62252;50.668;19.530;2022-11-20T06:23:57;435.08;;;388.63;;
43038;SDS011;62252;50.668;19.530;2022-11-20T06:26:30;408.98;;;364.75;;
43038;SDS011;62252;50.668;19.530;2022-11-20T06:29:04;410.10;;;365.10;;
43038;SDS011;62252;50.668;19.530;2022-11-20T06:31:40;409.60;;;365.35;;
43038;SDS011;62252;50.668;19.530;2022-11-20T06:34:13;425.05;;;378.90;;
43038;SDS011;62252;50.668;19.530;2022-11-20T06:36:46;416.50;;;371.38;;
43038;SDS011;62252;50.668;19.530;2022-11-20T06:39:19;398.75;;;352.35;;
43038;SDS011;62252;50.668;19.530;2022-11-20T06:41:53;440.33;;;393.45;;
43038;SDS011;62252;50.668;19.530;2022-11-20T06:44:26;406.60;;;362.55;;
43038;SDS011;62252;50.668;19.530;2022-11-20T06:47:02;398.70;;;355.15;;
43038;SDS011;62252;50.668;19.530;2022-11-20T06:49:36;402.73;;;359.25;;
43038;SDS011;62252;50.668;19.530;2022-11-20T06:52:09;447.80;;;402.05;;
43038;SDS011;62252;50.668;19.530;2022-11-20T06:54:42;457.67;;;410.75;;
43038;SDS011;62252;50.668;19.530;2022-11-20T06:57:16;424.30;;;378.83;;
43038;SDS011;62252;50.668;19.530;2022-11-20T06:59:49;423.65;;;378.27;;
43038;SDS011;62252;50.668;19.530;2022-11-20T07:02:25;409.33;;;365.70;;
43038;SDS011;62252;50.668;19.530;2022-11-20T07:04:58;395.92;;;352.77;;
43038;SDS011;62252;50.668;19.530;2022-11-20T07:07:31;410.08;;;365.17;;
43038;SDS011;62252;50.668;19.530;2022-11-20T07:10:05;391.35;;;349.05;;
43038;SDS011;62252;50.668;19.530;2022-11-20T07:12:41;419.50;;;375.25;;
43038;SDS011;62252;50.668;19.530;2022-11-20T07:15:14;411.05;;;367.50;;
43038;SDS011;62252;50.668;19.530;2022-11-20T07:17:50;422.45;;;378.15;;
43038;SDS011;62252;50.668;19.530;2022-11-20T07:20:24;424.58;;;379.27;;
43038;SDS011;62252;50.668;19.530;2022-11-20T07:22:58;411.92;;;367.40;;
43038;SDS011;62252;50.668;19.530;2022-11-20T07:25:31;435.25;;;389.60;;
43038;SDS011;62252;50.668;19.530;2022-11-20T07:28:04;419.50;;;375.85;;
43038;SDS011;62252;50.668;19.530;2022-11-20T07:30:39;415.98;;;372.98;;
43038;SDS011;62252;50.668;19.530;2022-11-20T07:33:15;430.65;;;385.35;;
43038;SDS011;62252;50.668;19.530;2022-11-20T07:35:48;418.52;;;374.92;;
43038;SDS011;62252;50.668;19.530;2022-11-20T07:38:22;432.05;;;387.35;;
43038;SDS011;62252;50.668;19.530;2022-11-20T07:40:55;421.10;;;377.40;;
43038;SDS011;62252;50.668;19.530;2022-11-20T07:43:29;516.33;;;456.25;;
43038;SDS011;62252;50.668;19.530;2022-11-20T07:46:02;557.22;;;481.65;;
43038;SDS011;62252;50.668;19.530;2022-11-20T07:48:39;529.80;;;462.05;;
43038;SDS011;62252;50.668;19.530;2022-11-20T07:51:12;425.42;;;379.30;;
43038;SDS011;62252;50.668;19.530;2022-11-20T07:53:50;402.33;;;359.95;;
43038;SDS011;62252;50.668;19.530;2022-11-20T07:56:23;399.35;;;357.70;;
43038;SDS011;62252;50.668;19.530;2022-11-20T07:58:57;414.33;;;371.95;;
43038;SDS011;62252;50.668;19.530;2022-11-20T08:01:30;424.55;;;380.45;;
43038;SDS011;62252;50.668;19.530;2022-11-20T08:04:06;474.88;;;425.20;;
43038;SDS011;62252;50.668;19.530;2022-11-20T08:06:44;444.95;;;397.95;;
43038;SDS011;62252;50.668;19.530;2022-11-20T08:09:18;524.17;;;460.67;;
43038;SDS011;62252;50.668;19.530;2022-11-20T08:11:51;543.90;;;482.23;;
43038;SDS011;62252;50.668;19.530;2022-11-20T08:14:37;562.22;;;497.05;;
43038;SDS011;62252;50.668;19.530;2022-11-20T08:17:11;557.08;;;486.02;;
43038;SDS011;62252;50.668;19.530;2022-11-20T08:19:46;544.63;;;473.92;;
43038;SDS011;62252;50.668;19.530;2022-11-20T08:22:20;559.50;;;493.48;;
43038;SDS011;62252;50.668;19.530;2022-11-20T08:24:53;547.92;;;479.95;;
43038;SDS011;62252;50.668;19.530;2022-11-20T08:27:26;559.65;;;491.35;;
43038;SDS011;62252;50.668;19.530;2022-11-20T08:30:00;556.97;;;495.35;;
43038;SDS011;62252;50.668;19.530;2022-11-20T08:32:33;540.50;;;475.45;;
43038;SDS011;62252;50.668;19.530;2022-11-20T08:35:09;549.15;;;474.63;;
43038;SDS011;62252;50.668;19.530;2022-11-20T08:37:45;529.13;;;460.38;;
43038;SDS011;62252;50.668;19.530;2022-11-20T08:40:18;526.25;;;468.23;;
43038;SDS011;62252;50.668;19.530;2022-11-20T08:42:52;504.75;;;450.05;;
43038;SDS011;62252;50.668;19.530;2022-11-20T08:45:25;429.13;;;384.70;;
43038;SDS011;62252;50.668;19.530;2022-11-20T08:47:59;409.27;;;365.90;;
43038;SDS011;62252;50.668;19.530;2022-11-20T08:50:36;404.77;;;362.83;;
43038;SDS011;62252;50.668;19.530;2022-11-20T08:53:09;409.45;;;367.08;;
43038;SDS011;62252;50.668;19.530;2022-11-20T08:55:42;399.80;;;358.25;;
43038;SDS011;62252;50.668;19.530;2022-11-20T08:58:16;400.83;;;358.92;;
43038;SDS011;62252;50.668;19.530;2022-11-20T09:00:49;410.88;;;367.02;;
43038;SDS011;62252;50.668;19.530;2022-11-20T09:03:22;400.30;;;357.65;;
43038;SDS011;62252;50.668;19.530;2022-11-20T09:06:03;413.15;;;370.35;;
43038;SDS011;62252;50.668;19.530;2022-11-20T09:11:11;420.80;;;377.25;;
43038;SDS011;62252;50.668;19.530;2022-11-20T09:13:44;412.83;;;369.30;;
43038;SDS011;62252;50.668;19.530;2022-11-20T09:16:18;400.70;;;356.88;;
43038;SDS011;62252;50.668;19.530;2022-11-20T09:18:51;400.45;;;356.95;;
43038;SDS011;62252;50.668;19.530;2022-11-20T09:21:27;402.80;;;358.35;;
43038;SDS011;62252;50.668;19.530;2022-11-20T09:24:00;402.73;;;359.35;;
43038;SDS011;62252;50.668;19.530;2022-11-20T09:26:33;415.45;;;369.55;;
43038;SDS011;62252;50.668;19.530;2022-11-20T09:29:07;403.20;;;349.75;;
43038;SDS011;62252;50.668;19.530;2022-11-20T09:31:40;411.63;;;363.67;;
43038;SDS011;62252;50.668;19.530;2022-11-20T09:34:13;406.02;;;361.30;;
43038;SDS011;62252;50.668;19.530;2022-11-20T09:36:50;415.67;;;371.48;;
43038;SDS011;62252;50.668;19.530;2022-11-20T09:39:23;434.98;;;388.02;;
43038;SDS011;62252;50.668;19.530;2022-11-20T09:42:03;423.52;;;378.35;;
43038;SDS011;62252;50.668;19.530;2022-11-20T09:45:02;409.08;;;364.60;;
43038;SDS011;62252;50.668;19.530;2022-11-20T09:47:51;425.55;;;379.48;;
43038;SDS011;62252;50.668;19.530;2022-11-20T09:50:38;435.27;;;390.35;;
43038;SDS011;62252;50.668;19.530;2022-11-20T09:53:23;425.92;;;380.33;;
43038;SDS011;62252;50.668;19.530;2022-11-20T09:56:03;409.20;;;364.50;;
43038;SDS011;62252;50.668;19.530;2022-11-20T09:58:38;419.50;;;374.23;;
43038;SDS011;62252;50.668;19.530;2022-11-20T10:01:14;404.52;;;360.13;;
43038;SDS011;62252;50.668;19.530;2022-11-20T10:03:51;413.67;;;368.02;;
43038;SDS011;62252;50.668;19.530;2022-11-20T10:06:29;401.33;;;358.65;;
43038;SDS011;62252;50.668;19.530;2022-11-20T10:09:18;411.35;;;367.67;;
43038;SDS011;62252;50.668;19.530;2022-11-20T10:12:01;417.48;;;373.13;;
43038;SDS011;62252;50.668;19.530;2022-11-20T10:14:46;410.08;;;366.00;;
43038;SDS011;62252;50.668;19.530;2022-11-20T10:17:31;407.40;;;363.58;;
43038;SDS011;62252;50.668;19.530;2022-11-20T10:20:16;396.83;;;353.48;;
43038;SDS011;62252;50.668;19.530;2022-11-20T10:23:02;435.75;;;389.77;;
43038;SDS011;62252;50.668;19.530;2022-11-20T10:25:54;421.63;;;376.67;;
43038;SDS011;62252;50.668;19.530;2022-11-20T10:28:40;436.45;;;389.98;;
43038;SDS011;62252;50.668;19.530;2022-11-20T10:31:26;430.23;;;385.17;;
43038;SDS011;62252;50.668;19.530;2022-11-20T10:34:05;429.38;;;384.13;;
43038;SDS011;62252;50.668;19.530;2022-11-20T10:36:48;446.58;;;400.60;;
43038;SDS011;62252;50.668;19.530;2022-11-20T10:39:31;426.85;;;381.20;;
43038;SDS011;62252;50.668;19.530;2022-11-20T10:42:14;428.00;;;382.45;;
43038;SDS011;62252;50.668;19.530;2022-11-20T10:44:55;405.75;;;363.20;;
43038;SDS011;62252;50.668;19.530;2022-11-20T10:47:36;439.05;;;393.40;;
43038;SDS011;62252;50.668;19.530;2022-11-20T10:50:11;412.50;;;368.25;;
43038;SDS011;62252;50.668;19.530;2022-11-20T10:52:52;425.88;;;381.35;;
43038;SDS011;62252;50.668;19.530;2022-11-20T10:55:39;425.88;;;381.33;;
43038;SDS011;62252;50.668;19.530;2022-11-20T10:58:21;430.08;;;384.38;;
43038;SDS011;62252;50.668;19.530;2022-11-20T11:01:11;417.40;;;372.85;;
43038;SDS011;62252;50.668;19.530;2022-11-20T11:03:48;434.52;;;388.05;;
43038;SDS011;62252;50.668;19.530;2022-11-20T11:06:25;421.10;;;376.55;;
43038;SDS011;62252;50.668;19.530;2022-11-20T11:09:09;431.73;;;385.50;;
43038;SDS011;62252;50.668;19.530;2022-11-20T11:11:48;439.95;;;394.13;;
43038;SDS011;62252;50.668;19.530;2022-11-20T11:14:24;460.17;;;413.63;;
43038;SDS011;62252;50.668;19.530;2022-11-20T11:16:57;432.63;;;386.98;;
43038;SDS011;62252;50.668;19.530;2022-11-20T11:19:30;449.30;;;403.48;;
43038;SDS011;62252;50.668;19.530;2022-11-20T11:22:04;456.85;;;410.02;;
43038;SDS011;62252;50.668;19.530;2022-11-20T11:24:51;432.05;;;387.25;;
43038;SDS011;62252;50.668;19.530;2022-11-20T11:27:25;446.05;;;400.38;;
43038;SDS011;62252;50.668;19.530;2022-11-20T11:30:10;442.00;;;397.45;;
43038;SDS011;62252;50.668;19.530;2022-11-20T11:32:45;432.98;;;389.00;;
43038;SDS011;62252;50.668;19.530;2022-11-20T11:35:23;450.17;;;405.23;;
43038;SDS011;62252;50.668;19.530;2022-11-20T11:38:02;450.13;;;404.52;;
43038;SDS011;62252;50.668;19.530;2022-11-20T11:40:37;425.25;;;381.83;;
43038;SDS011;62252;50.668;19.530;2022-11-20T11:43:19;436.83;;;392.52;;
43038;SDS011;62252;50.668;19.530;2022-11-20T11:46:15;428.23;;;384.75;;
43038;SDS011;62252;50.668;19.530;2022-11-20T11:48:59;432.35;;;387.02;;
43038;SDS011;62252;50.668;19.530;2022-11-20T11:51:34;429.27;;;384.33;;
43038;SDS011;62252;50.668;19.530;2022-11-20T11:54:14;437.13;;;392.30;;
43038;SDS011;62252;50.668;19.530;2022-11-20T11:56:51;425.13;;;381.17;;
43038;SDS011;62252;50.668;19.530;2022-11-20T11:59:26;446.45;;;400.25;;
43038;SDS011;62252;50.668;19.530;2022-11-20T12:02:11;420.63;;;375.38;;
43038;SDS011;62252;50.668;19.530;2022-11-20T12:04:56;436.52;;;391.98;;
43038;SDS011;62252;50.668;19.530;2022-11-20T12:07:37;443.50;;;398.45;;
43038;SDS011;62252;50.668;19.530;2022-11-20T12:10:19;431.45;;;387.13;;
43038;SDS011;62252;50.668;19.530;2022-11-20T12:12:54;438.95;;;393.90;;
43038;SDS011;62252;50.668;19.530;2022-11-20T12:15:35;418.90;;;374.33;;
43038;SDS011;62252;50.668;19.530;2022-11-20T12:18:14;426.77;;;381.77;;
43038;SDS011;62252;50.668;19.530;2022-11-20T12:20:53;437.77;;;392.00;;
43038;SDS011;62252;50.668;19.530;2022-11-20T12:23:44;435.40;;;390.98;;
43038;SDS011;62252;50.668;19.530;2022-11-20T12:26:49;414.80;;;370.55;;
43038;SDS011;62252;50.668;19.530;2022-11-20T12:29:36;426.75;;;383.15;;
43038;SDS011;62252;50.668;19.530;2022-11-20T12:32:25;415.85;;;372.27;;
43038;SDS011;62252;50.668;19.530;2022-11-20T12:35:20;443.92;;;399.25;;
43038;SDS011;62252;50.668;19.530;2022-11-20T12:38:21;445.80;;;400.38;;
43038;SDS011;62252;50.668;19.530;2022-11-20T12:41:11;451.60;;;404.70;;
43038;SDS011;62252;50.668;19.530;2022-11-20T12:44:10;435.00;;;390.50;;
43038;SDS011;62252;50.668;19.530;2022-11-20T12:47:12;442.77;;;398.40;;
43038;SDS011;62252;50.668;19.530;2022-11-20T12:49:56;435.30;;;391.23;;
43038;SDS011;62252;50.668;19.530;2022-11-20T12:52:41;436.48;;;392.67;;
43038;SDS011;62252;50.668;19.530;2022-11-20T12:55:24;433.00;;;388.85;;
43038;SDS011;62252;50.668;19.530;2022-11-20T12:58:05;453.38;;;407.95;;
43038;SDS011;62252;50.668;19.530;2022-11-20T13:00:50;432.80;;;388.70;;
43038;SDS011;62252;50.668;19.530;2022-11-20T13:03:37;436.65;;;392.10;;
43038;SDS011;62252;50.668;19.530;2022-11-20T13:06:15;439.25;;;395.60;;
43038;SDS011;62252;50.668;19.530;2022-11-20T13:08:52;460.02;;;414.13;;
43038;SDS011;62252;50.668;19.530;2022-11-20T13:11:27;421.73;;;379.52;;
43038;SDS011;62252;50.668;19.530;2022-11-20T13:14:12;457.60;;;411.58;;
43038;SDS011;62252;50.668;19.530;2022-11-20T13:16:58;418.25;;;374.52;;
43038;SDS011;62252;50.668;19.530;2022-11-20T13:19:37;448.67;;;404.00;;
43038;SDS011;62252;50.668;19.530;2022-11-20T13:22:11;437.85;;;394.95;;
43038;SDS011;62252;50.668;19.530;2022-11-20T13:24:50;423.77;;;381.25;;
43038;SDS011;62252;50.668;19.530;2022-11-20T13:27:23;441.23;;;397.10;;
43038;SDS011;62252;50.668;19.530;2022-11-20T13:30:02;447.45;;;402.77;;
43038;SDS011;62252;50.668;19.530;2022-11-20T13:32:52;414.55;;;373.65;;
43038;SDS011;62252;50.668;19.530;2022-11-20T13:35:29;552.00;;;497.95;;
43038;SDS011;62252;50.668;19.530;2022-11-20T13:38:04;433.27;;;390.23;;
43038;SDS011;62252;50.668;19.530;2022-11-20T13:40:53;418.90;;;377.05;;
43038;SDS011;62252;50.668;19.530;2022-11-20T13:43:48;408.02;;;366.30;;
43038;SDS011;62252;50.668;19.530;2022-11-20T13:46:21;440.35;;;396.02;;
43038;SDS011;62252;50.668;19.530;2022-11-20T13:49:05;403.25;;;362.83;;
43038;SDS011;62252;50.668;19.530;2022-11-20T13:51:42;442.23;;;398.13;;
43038;SDS011;62252;50.668;19.530;2022-11-20T13:57:30;442.90;;;400.33;;
43038;SDS011;62252;50.668;19.530;2022-11-20T14:00:26;405.65;;;365.50;;
43038;SDS011;62252;50.668;19.530;2022-11-20T14:03:00;415.65;;;373.83;;
43038;SDS011;62252;50.668;19.530;2022-11-20T14:05:45;438.45;;;394.85;;
43038;SDS011;62252;50.668;19.530;2022-11-20T14:08:26;436.85;;;393.35;;
43038;SDS011;62252;50.668;19.530;2022-11-20T14:11:06;428.33;;;384.88;;
43038;SDS011;62252;50.668;19.530;2022-11-20T14:13:55;421.92;;;379.17;;
43038;SDS011;62252;50.668;19.530;2022-11-20T14:16:31;407.02;;;365.25;;
43038;SDS011;62252;50.668;19.530;2022-11-20T14:19:23;395.08;;;354.38;;
43038;SDS011;62252;50.668;19.530;2022-11-20T14:22:16;411.20;;;369.33;;
43038;SDS011;62252;50.668;19.530;2022-11-20T14:25:01;426.50;;;382.92;;
43038;SDS011;62252;50.668;19.530;2022-11-20T14:27:38;416.17;;;373.35;;
43038;SDS011;62252;50.668;19.530;2022-11-20T14:30:17;421.77;;;377.85;;
43038;SDS011;62252;50.668;19.530;2022-11-20T14:32:56;431.30;;;388.20;;
43038;SDS011;62252;50.668;19.530;2022-11-20T14:35:34;420.25;;;377.02;;
43038;SDS011;62252;50.668;19.530;2022-11-20T14:38:12;425.77;;;382.98;;
43038;SDS011;62252;50.668;19.530;2022-11-20T14:40:47;431.70;;;387.50;;
43038;SDS011;62252;50.668;19.530;2022-11-20T14:43:22;554.22;;;494.92;;
43038;SDS011;62252;50.668;19.530;2022-11-20T14:45:59;544.15;;;485.75;;
43038;SDS011;62252;50.668;19.530;2022-11-20T14:48:38;542.08;;;483.88;;